createdAt,value
2023-02-17T00:01:32.445Z,19.10
2023-02-17T00:04:00.093Z,19.10
2023-02-17T00:06:29.235Z,19.10
2023-02-17T00:08:56.601Z,19.00
2023-02-17T00:11:23.791Z,19.00
2023-02-17T00:13:53.466Z,19.00
2023-02-17T00:16:25.468Z,19.00
2023-02-17T00:18:54.900Z,19.00
2023-02-17T00:21:24.332Z,19.00
2023-02-17T00:23:52.313Z,19.00
2023-02-17T00:26:20.769Z,19.00
2023-02-17T00:28:48.693Z,19.00
2023-02-17T00:31:19.470Z,19.00
2023-02-17T00:33:46.802Z,19.00
2023-02-17T00:36:17.765Z,19.00
2023-02-17T00:38:44.596Z,19.00
2023-02-17T00:41:11.539Z,19.00
2023-02-17T00:43:38.320Z,19.00
2023-02-17T00:46:06.045Z,19.00
2023-02-17T00:48:33.462Z,19.00
2023-02-17T00:51:00.412Z,19.00
2023-02-17T00:53:28.054Z,19.00
2023-02-17T00:55:54.830Z,19.00
2023-02-17T00:58:21.876Z,19.00
2023-02-17T01:00:48.720Z,19.00
2023-02-17T01:03:16.069Z,19.00
2023-02-17T01:05:45.466Z,19.10
2023-02-17T01:08:12.875Z,19.10
2023-02-17T01:10:42.473Z,19.00
2023-02-17T01:13:10.236Z,19.00
2023-02-17T01:15:42.080Z,19.00
2023-02-17T01:18:08.995Z,19.10
2023-02-17T01:20:37.576Z,19.00
2023-02-17T01:23:05.285Z,19.00
2023-02-17T01:25:32.064Z,19.00
2023-02-17T01:27:58.830Z,19.00
2023-02-17T01:30:25.805Z,19.00
2023-02-17T01:32:52.744Z,19.00
2023-02-17T01:35:19.616Z,19.00
2023-02-17T01:37:46.387Z,19.00
2023-02-17T01:40:17.182Z,19.00
2023-02-17T01:42:44.485Z,19.00
2023-02-17T01:45:20.414Z,19.00
2023-02-17T01:48:00.968Z,19.00
2023-02-17T01:51:00.875Z,19.00
2023-02-17T01:54:02.905Z,18.90
2023-02-17T01:56:33.157Z,18.90
2023-02-17T01:59:12.600Z,18.90
2023-02-17T02:01:40.109Z,18.90
2023-02-17T02:04:08.039Z,18.90
2023-02-17T02:06:38.633Z,18.90
2023-02-17T02:09:15.106Z,18.90
2023-02-17T02:11:41.948Z,18.90
2023-02-17T02:14:10.337Z,18.90
2023-02-17T02:16:45.713Z,18.90
2023-02-17T02:19:12.611Z,19.00
2023-02-17T02:22:04.138Z,19.00
2023-02-17T02:24:52.599Z,19.10
2023-02-17T02:27:46.804Z,19.10
2023-02-17T02:30:45.410Z,19.20
2023-02-17T02:33:22.384Z,19.30
2023-02-17T02:36:17.499Z,19.30
2023-02-17T02:39:00.208Z,19.40
2023-02-17T02:41:32.887Z,19.40
2023-02-17T02:43:59.795Z,19.40
2023-02-17T02:46:26.588Z,19.40
2023-02-17T02:48:53.612Z,19.40
2023-02-17T02:51:24.591Z,19.30
2023-02-17T02:53:54.064Z,19.30
2023-02-17T02:56:41.794Z,19.30
2023-02-17T02:59:36.544Z,19.30
2023-02-17T03:02:25.416Z,19.30
2023-02-17T03:04:58.276Z,19.30
2023-02-17T03:07:40.594Z,19.40
2023-02-17T03:10:08.328Z,19.40
2023-02-17T03:12:37.967Z,19.40
2023-02-17T03:15:20.761Z,19.50
2023-02-17T03:17:47.601Z,19.50
2023-02-17T03:20:15.511Z,19.60
2023-02-17T03:22:47.263Z,19.60
2023-02-17T03:25:14.810Z,19.60
2023-02-17T03:27:41.674Z,19.60
2023-02-17T03:30:10.192Z,19.60
2023-02-17T03:32:37.358Z,19.60
2023-02-17T03:35:04.779Z,19.60
2023-02-17T03:37:31.559Z,19.60
2023-02-17T03:39:58.314Z,19.60
2023-02-17T03:42:25.225Z,19.60
2023-02-17T03:44:52.011Z,19.60
2023-02-17T03:47:18.760Z,19.60
2023-02-17T03:49:45.702Z,19.60
2023-02-17T03:52:12.440Z,19.70
2023-02-17T03:54:39.319Z,19.70
2023-02-17T03:57:06.120Z,19.80
2023-02-17T03:59:33.037Z,19.80
2023-02-17T04:01:59.791Z,19.80
2023-02-17T04:04:26.603Z,19.80
2023-02-17T04:06:53.378Z,19.90
2023-02-17T04:09:20.134Z,19.90
2023-02-17T04:11:47.187Z,19.90
2023-02-17T04:14:14.072Z,19.90
2023-02-17T04:16:40.879Z,19.80
2023-02-17T04:19:08.023Z,19.80
2023-02-17T04:21:35.111Z,19.70
2023-02-17T04:24:02.864Z,19.60
2023-02-17T04:26:30.345Z,19.60
2023-02-17T04:28:57.287Z,19.60
2023-02-17T04:31:25.929Z,19.60
2023-02-17T04:33:52.882Z,19.60
2023-02-17T04:36:19.833Z,19.60
2023-02-17T04:38:46.587Z,19.60
2023-02-17T04:41:13.548Z,19.70
2023-02-17T04:43:40.320Z,19.70
2023-02-17T04:46:07.657Z,19.70
2023-02-17T04:48:34.961Z,19.80
2023-02-17T04:51:01.711Z,19.80
2023-02-17T04:53:28.992Z,19.80
2023-02-17T04:55:55.783Z,19.80
2023-02-17T04:58:22.710Z,19.80
2023-02-17T05:00:50.611Z,19.80
2023-02-17T05:03:18.622Z,19.80
2023-02-17T05:05:45.633Z,19.80
2023-02-17T05:08:12.439Z,19.80
2023-02-17T05:10:39.345Z,19.80
2023-02-17T05:13:06.288Z,19.70
2023-02-17T05:15:34.882Z,19.60
2023-02-17T05:18:02.619Z,19.60
2023-02-17T05:20:29.619Z,19.60
2023-02-17T05:22:56.398Z,19.60
2023-02-17T05:25:23.182Z,19.60
2023-02-17T05:27:50.012Z,19.60
2023-02-17T05:30:16.991Z,19.60
2023-02-17T05:32:43.804Z,19.60
2023-02-17T05:35:10.563Z,19.50
2023-02-17T05:37:37.348Z,19.50
2023-02-17T05:40:04.756Z,19.50
2023-02-17T05:42:31.708Z,19.50
2023-02-17T05:44:58.482Z,19.50
2023-02-17T05:47:27.582Z,19.40
2023-02-17T05:49:54.505Z,19.40
2023-02-17T05:52:21.282Z,19.40
2023-02-17T05:54:48.097Z,19.40
2023-02-17T05:57:14.902Z,19.40
2023-02-17T05:59:41.660Z,19.30
2023-02-17T06:02:08.449Z,19.30
2023-02-17T06:04:35.384Z,19.40
2023-02-17T06:07:02.279Z,19.40
2023-02-17T06:09:29.288Z,19.40
2023-02-17T06:11:56.060Z,19.40
2023-02-17T06:14:22.860Z,19.40
2023-02-17T06:16:49.655Z,19.50
2023-02-17T06:19:16.437Z,19.50
2023-02-17T06:21:43.196Z,19.50
2023-02-17T06:24:09.999Z,19.60
2023-02-17T06:26:36.777Z,19.60
2023-02-17T06:29:03.668Z,19.60
2023-02-17T06:31:30.555Z,19.60
2023-02-17T06:33:57.371Z,19.60
2023-02-17T06:36:24.275Z,19.60
2023-02-17T06:38:51.097Z,19.50
2023-02-17T06:41:17.881Z,19.50
2023-02-17T06:43:44.657Z,19.50
2023-02-17T06:46:11.863Z,19.50
2023-02-17T06:48:38.700Z,19.60
2023-02-17T06:51:05.621Z,19.60
2023-02-17T06:53:32.409Z,19.60
2023-02-17T06:55:59.385Z,19.60
2023-02-17T06:58:26.204Z,19.60
2023-02-17T07:00:52.983Z,19.60
2023-02-17T07:03:19.798Z,19.60
2023-02-17T07:05:46.742Z,19.60
2023-02-17T07:08:13.626Z,19.60
2023-02-17T07:10:40.454Z,19.60
2023-02-17T07:13:07.650Z,19.60
2023-02-17T07:15:34.946Z,19.60
2023-02-17T07:18:03.074Z,19.60
2023-02-17T07:20:31.921Z,19.60
2023-02-17T07:23:00.244Z,19.60
2023-02-17T07:25:27.040Z,19.60
2023-02-17T07:27:53.838Z,19.50
2023-02-17T07:30:20.799Z,19.50
2023-02-17T07:32:47.659Z,19.40
2023-02-17T07:35:14.450Z,19.40
2023-02-17T07:37:41.271Z,19.40
2023-02-17T07:40:08.415Z,19.40
2023-02-17T07:42:35.191Z,19.40
2023-02-17T07:45:01.930Z,19.40
2023-02-17T07:47:28.895Z,19.40
2023-02-17T07:49:55.916Z,19.50
2023-02-17T07:52:22.792Z,19.50
2023-02-17T07:54:49.622Z,19.60
2023-02-17T07:57:16.423Z,19.60
2023-02-17T07:59:43.201Z,19.60
2023-02-17T08:02:11.825Z,19.60
2023-02-17T08:04:38.659Z,19.60
2023-02-17T08:07:05.475Z,19.60
2023-02-17T08:09:51.098Z,19.50
2023-02-17T08:12:38.338Z,19.40
2023-02-17T08:15:07.620Z,19.30
2023-02-17T08:17:34.559Z,19.40
2023-02-17T08:20:07.959Z,19.30
2023-02-17T08:22:35.187Z,19.30
2023-02-17T08:25:01.992Z,19.30
2023-02-17T08:27:29.240Z,19.30
2023-02-17T08:29:56.091Z,19.40
2023-02-17T08:32:22.992Z,19.30
2023-02-17T08:34:50.076Z,19.40
2023-02-17T08:37:16.920Z,19.40
2023-02-17T08:39:43.949Z,19.50
2023-02-17T08:42:12.098Z,19.50
2023-02-17T08:44:39.138Z,19.50
2023-02-17T08:47:06.721Z,19.50
2023-02-17T08:49:33.558Z,19.50
2023-02-17T08:52:00.551Z,19.60
2023-02-17T08:54:27.659Z,19.60
2023-02-17T08:56:54.564Z,19.50
2023-02-17T08:59:21.761Z,19.50
2023-02-17T09:01:48.591Z,19.50
2023-02-17T09:04:16.327Z,19.50
2023-02-17T09:06:46.731Z,19.50
2023-02-17T09:09:16.088Z,19.40
2023-02-17T09:11:43.418Z,19.50
2023-02-17T09:14:10.491Z,19.50
2023-02-17T09:16:41.421Z,19.50
2023-02-17T09:19:08.706Z,19.60
2023-02-17T09:21:35.617Z,19.60
2023-02-17T09:24:02.478Z,19.70
2023-02-17T09:26:29.675Z,19.70
2023-02-17T09:28:57.867Z,19.80
2023-02-17T09:31:26.807Z,19.80
2023-02-17T09:33:54.521Z,19.90
2023-02-17T09:36:26.841Z,19.90
2023-02-17T09:38:53.851Z,19.80
2023-02-17T09:41:42.335Z,19.80
2023-02-17T09:44:43.336Z,19.80
2023-02-17T09:47:18.189Z,19.80
2023-02-17T09:49:53.694Z,19.80
2023-02-17T09:52:49.113Z,19.80
2023-02-17T09:55:41.000Z,19.90
2023-02-17T09:58:21.464Z,19.90
2023-02-17T10:00:53.488Z,20.00
2023-02-17T10:03:31.027Z,20.10
2023-02-17T10:06:24.406Z,20.10
2023-02-17T10:09:01.068Z,20.20
2023-02-17T10:11:35.200Z,20.20
2023-02-17T10:14:11.334Z,20.30
2023-02-17T10:17:19.196Z,20.30
2023-02-17T10:20:04.722Z,20.30
2023-02-17T10:22:32.851Z,20.40
2023-02-17T10:25:01.844Z,20.30
2023-02-17T10:27:41.410Z,20.40
2023-02-17T10:30:08.467Z,20.30
2023-02-17T10:32:58.221Z,20.30
2023-02-17T10:35:53.260Z,20.30
2023-02-17T10:38:22.826Z,20.40
2023-02-17T10:40:51.523Z,20.40
2023-02-17T10:43:26.970Z,20.40
2023-02-17T10:45:54.422Z,20.50
2023-02-17T10:48:34.524Z,20.60
2023-02-17T10:51:01.905Z,20.60
2023-02-17T10:53:33.140Z,20.60
2023-02-17T10:56:14.482Z,20.70
2023-02-17T10:58:41.282Z,20.70
2023-02-17T11:01:08.614Z,20.80
2023-02-17T11:03:38.166Z,20.80
2023-02-17T11:06:15.071Z,20.90
2023-02-17T11:09:33.156Z,21.00
2023-02-17T11:12:25.049Z,21.00
2023-02-17T11:14:54.919Z,21.10
2023-02-17T11:17:34.500Z,21.10
2023-02-17T11:20:06.024Z,21.20
2023-02-17T11:22:49.192Z,21.20
2023-02-17T11:25:23.221Z,21.30
2023-02-17T11:27:55.674Z,21.30
2023-02-17T11:30:23.641Z,21.40
2023-02-17T11:32:50.768Z,21.40
2023-02-17T11:35:41.697Z,21.50
2023-02-17T11:38:21.409Z,21.60
2023-02-17T11:40:55.964Z,21.60
2023-02-17T11:43:23.730Z,21.70
2023-02-17T11:46:00.732Z,21.70
2023-02-17T11:48:39.852Z,21.70
2023-02-17T11:51:31.030Z,21.70
2023-02-17T11:54:04.329Z,21.70
2023-02-17T11:56:36.837Z,21.70
2023-02-17T11:59:24.900Z,21.70
2023-02-17T12:02:00.806Z,21.60
2023-02-17T12:04:32.737Z,21.60
2023-02-17T12:07:24.758Z,21.50
2023-02-17T12:09:57.795Z,21.40
2023-02-17T12:12:33.723Z,21.30
2023-02-17T12:15:27.569Z,21.20
2023-02-17T12:18:21.890Z,21.10
2023-02-17T12:20:54.274Z,21.00
2023-02-17T12:23:38.872Z,21.00
2023-02-17T12:26:34.732Z,20.90
2023-02-17T12:29:23.552Z,20.90
2023-02-17T12:32:26.119Z,20.90
2023-02-17T12:35:03.757Z,20.90
2023-02-17T12:37:38.508Z,21.00
2023-02-17T12:40:43.495Z,21.00
2023-02-17T12:43:49.223Z,21.00
2023-02-17T12:46:29.394Z,21.10
2023-02-17T12:49:06.568Z,21.10
2023-02-17T12:52:02.423Z,21.10
2023-02-17T12:54:32.457Z,21.20
2023-02-17T12:57:37.179Z,21.20
2023-02-17T13:00:23.765Z,21.20
2023-02-17T13:02:50.658Z,21.10
2023-02-17T13:05:26.457Z,21.10
2023-02-17T13:08:11.376Z,21.10
2023-02-17T13:10:40.738Z,21.10
2023-02-17T13:13:14.256Z,21.00
2023-02-17T13:15:45.660Z,21.00
2023-02-17T13:18:14.154Z,20.90
2023-02-17T13:20:57.047Z,20.90
2023-02-17T13:23:37.469Z,20.90
2023-02-17T13:26:21.789Z,20.90
2023-02-17T13:28:50.580Z,21.00
2023-02-17T13:31:26.315Z,21.00
2023-02-17T13:33:59.498Z,21.00
2023-02-17T13:36:29.067Z,21.00
2023-02-17T13:39:04.957Z,21.10
2023-02-17T13:41:47.042Z,21.10
2023-02-17T13:44:28.783Z,21.10
2023-02-17T13:47:03.776Z,21.10
2023-02-17T13:49:34.978Z,21.10
2023-02-17T13:52:19.588Z,21.10
2023-02-17T13:55:05.568Z,21.20
2023-02-17T13:57:34.964Z,21.10
2023-02-17T14:00:09.155Z,21.10
2023-02-17T14:02:45.270Z,21.00
2023-02-17T14:05:19.625Z,21.00
2023-02-17T14:07:48.556Z,21.00
2023-02-17T14:10:22.351Z,20.90
2023-02-17T14:12:49.809Z,20.90
2023-02-17T14:15:19.309Z,20.80
2023-02-17T14:17:46.618Z,20.90
2023-02-17T14:20:49.718Z,20.80
2023-02-17T14:23:23.968Z,20.80
2023-02-17T14:25:52.840Z,20.80
2023-02-17T14:28:27.054Z,20.80
2023-02-17T14:30:54.103Z,20.80
2023-02-17T14:33:24.008Z,20.80
2023-02-17T14:35:55.533Z,20.90
2023-02-17T14:38:27.596Z,20.90
2023-02-17T14:40:55.923Z,20.90
2023-02-17T14:43:23.525Z,21.00
2023-02-17T14:45:51.249Z,21.00
2023-02-17T14:48:18.320Z,21.00
2023-02-17T14:50:45.926Z,21.00
2023-02-17T14:53:31.139Z,21.00
2023-02-17T14:56:07.341Z,21.00
2023-02-17T14:58:34.507Z,21.00
2023-02-17T15:01:01.851Z,21.00
2023-02-17T15:03:28.708Z,20.90
2023-02-17T15:05:55.684Z,20.90
2023-02-17T15:08:29.674Z,20.90
2023-02-17T15:10:56.476Z,20.80
2023-02-17T15:13:23.350Z,20.80
2023-02-17T15:15:50.228Z,20.80
2023-02-17T15:18:19.639Z,20.80
2023-02-17T15:20:50.249Z,20.90
2023-02-17T15:23:19.639Z,20.90
2023-02-17T15:25:47.202Z,20.90
2023-02-17T15:28:16.250Z,21.00
2023-02-17T15:30:46.420Z,21.00
2023-02-17T15:33:13.804Z,21.10
2023-02-17T15:35:41.033Z,21.10
2023-02-17T15:38:12.663Z,21.10
2023-02-17T15:40:40.609Z,21.20
2023-02-17T15:43:12.184Z,21.20
2023-02-17T15:45:39.015Z,21.20
2023-02-17T15:48:24.672Z,21.20
2023-02-17T15:50:52.107Z,21.20
2023-02-17T15:53:19.357Z,21.20
2023-02-17T15:55:46.985Z,21.20
2023-02-17T15:58:17.211Z,21.20
2023-02-17T16:00:49.828Z,21.10
2023-02-17T16:03:17.384Z,21.00
2023-02-17T16:05:44.451Z,21.00
2023-02-17T16:08:11.615Z,20.90
2023-02-17T16:10:40.433Z,21.00
2023-02-17T16:13:08.002Z,21.00
2023-02-17T16:15:37.506Z,21.00
2023-02-17T16:18:04.390Z,21.00
2023-02-17T16:20:34.623Z,21.00
2023-02-17T16:23:02.221Z,21.10
2023-02-17T16:25:29.769Z,21.10
2023-02-17T16:27:57.187Z,21.10
2023-02-17T16:30:33.864Z,21.10
2023-02-17T16:33:01.522Z,21.10
2023-02-17T16:35:31.715Z,21.10
2023-02-17T16:38:12.761Z,21.10
2023-02-17T16:40:47.377Z,21.20
2023-02-17T16:43:16.580Z,21.20
2023-02-17T16:45:54.693Z,21.20
2023-02-17T16:48:27.136Z,21.20
2023-02-17T16:50:54.145Z,21.20
2023-02-17T16:53:21.613Z,21.20
2023-02-17T16:55:49.038Z,21.10
2023-02-17T16:58:22.376Z,21.10
2023-02-17T17:00:52.115Z,21.00
2023-02-17T17:03:20.110Z,21.00
2023-02-17T17:05:46.952Z,21.00
2023-02-17T17:08:16.346Z,21.00
2023-02-17T17:10:45.077Z,21.00
2023-02-17T17:13:12.861Z,21.00
2023-02-17T17:15:43.696Z,21.00
2023-02-17T17:18:18.840Z,21.00
2023-02-17T17:20:45.696Z,21.10
2023-02-17T17:23:14.950Z,21.10
2023-02-17T17:25:45.630Z,21.20
2023-02-17T17:28:19.713Z,21.20
2023-02-17T17:30:47.474Z,21.30
2023-02-17T17:33:14.484Z,21.30
2023-02-17T17:35:41.242Z,21.40
2023-02-17T17:38:09.645Z,21.40
2023-02-17T17:40:48.203Z,21.50
2023-02-17T17:43:16.926Z,21.50
2023-02-17T17:45:43.767Z,21.60
2023-02-17T17:48:14.207Z,21.60
2023-02-17T17:50:41.434Z,21.60
2023-02-17T17:53:08.722Z,21.50
2023-02-17T17:55:35.916Z,21.50
2023-02-17T17:58:03.028Z,21.50
2023-02-17T18:00:29.987Z,21.50
2023-02-17T18:02:56.810Z,21.50
2023-02-17T18:05:23.699Z,21.50
2023-02-17T18:07:50.965Z,21.50
2023-02-17T18:10:18.021Z,21.60
2023-02-17T18:12:47.057Z,21.60
2023-02-17T18:15:15.385Z,21.60
2023-02-17T18:17:43.084Z,21.60
2023-02-17T18:20:11.531Z,21.60
2023-02-17T18:22:38.559Z,21.70
2023-02-17T18:25:06.020Z,21.70
2023-02-17T18:27:44.598Z,21.70
2023-02-17T18:30:14.320Z,21.70
2023-02-17T18:32:42.098Z,21.70
2023-02-17T18:35:10.125Z,21.70
2023-02-17T18:37:36.900Z,21.70
2023-02-17T18:40:04.223Z,21.70
2023-02-17T18:42:31.504Z,21.70
2023-02-17T18:44:58.255Z,21.70
2023-02-17T18:47:25.042Z,21.70
2023-02-17T18:49:52.100Z,21.60
2023-02-17T18:52:18.998Z,21.60
2023-02-17T18:54:46.209Z,21.50
2023-02-17T18:57:13.097Z,21.50
2023-02-17T18:59:39.905Z,21.50
2023-02-17T19:02:08.861Z,21.50
2023-02-17T19:04:36.070Z,21.50
2023-02-17T19:07:04.080Z,21.50
2023-02-17T19:09:36.046Z,21.60
2023-02-17T19:12:02.920Z,21.60
2023-02-17T19:14:33.161Z,21.60
2023-02-17T19:16:59.925Z,21.70
2023-02-17T19:19:30.228Z,21.70
2023-02-17T19:21:57.690Z,21.80
2023-02-17T19:24:24.427Z,21.80
2023-02-17T19:26:51.345Z,21.90
2023-02-17T19:29:18.150Z,21.90
2023-02-17T19:31:44.964Z,21.90
2023-02-17T19:34:11.970Z,22.00
2023-02-17T19:36:38.752Z,22.00
2023-02-17T19:39:05.973Z,22.00
2023-02-17T19:41:34.973Z,22.00
2023-02-17T19:44:02.712Z,22.00
2023-02-17T19:46:29.796Z,22.00
2023-02-17T19:48:56.840Z,21.90
2023-02-17T19:51:23.856Z,21.90
2023-02-17T19:53:50.639Z,21.90
2023-02-17T19:56:23.579Z,21.80
2023-02-17T19:58:50.710Z,21.80
2023-02-17T20:01:23.573Z,21.70
2023-02-17T20:03:51.339Z,21.70
2023-02-17T20:06:25.002Z,21.60
2023-02-17T20:08:54.399Z,21.50
2023-02-17T20:11:21.495Z,21.40
2023-02-17T20:13:48.300Z,21.40
2023-02-17T20:16:16.477Z,21.30
2023-02-17T20:18:45.763Z,21.30
2023-02-17T20:21:15.734Z,21.20
2023-02-17T20:23:42.594Z,21.20
2023-02-17T20:26:12.289Z,21.20
2023-02-17T20:28:39.269Z,21.10
2023-02-17T20:31:06.979Z,21.10
2023-02-17T20:33:34.068Z,21.10
2023-02-17T20:36:00.841Z,21.00
2023-02-17T20:38:28.052Z,21.10
2023-02-17T20:40:55.420Z,21.00
2023-02-17T20:43:22.227Z,21.00
2023-02-17T20:45:49.740Z,21.00
2023-02-17T20:48:19.391Z,21.00
2023-02-17T20:50:46.562Z,21.00
2023-02-17T20:53:13.324Z,20.90
2023-02-17T20:55:40.162Z,20.90
2023-02-17T20:58:07.281Z,20.90
2023-02-17T21:00:34.103Z,20.80
2023-02-17T21:03:01.149Z,20.80
2023-02-17T21:05:28.000Z,20.80
2023-02-17T21:07:56.509Z,20.80
2023-02-17T21:10:27.109Z,20.70
2023-02-17T21:12:54.422Z,20.70
2023-02-17T21:15:22.119Z,20.70
2023-02-17T21:17:48.864Z,20.60
2023-02-17T21:20:18.911Z,20.60
2023-02-17T21:22:45.826Z,20.60
2023-02-17T21:25:12.908Z,20.50
2023-02-17T21:27:39.744Z,20.50
2023-02-17T21:30:08.301Z,20.50
2023-02-17T21:32:35.337Z,20.50
2023-02-17T21:35:02.352Z,20.50
2023-02-17T21:37:29.472Z,20.40
2023-02-17T21:39:56.323Z,20.40
2023-02-17T21:42:44.633Z,20.40
2023-02-17T21:45:13.545Z,20.30
2023-02-17T21:47:40.310Z,20.20
2023-02-17T21:50:07.755Z,20.20
2023-02-17T21:52:34.472Z,20.10
2023-02-17T21:55:01.607Z,20.10
2023-02-17T21:57:28.602Z,20.10
2023-02-17T21:59:55.366Z,20.00
2023-02-17T22:02:22.202Z,20.00
2023-02-17T22:04:49.064Z,20.00
2023-02-17T22:07:15.888Z,20.00
2023-02-17T22:09:42.700Z,20.00
2023-02-17T22:12:09.438Z,20.00
2023-02-17T22:14:36.264Z,20.00
2023-02-17T22:17:03.146Z,20.00
2023-02-17T22:19:31.540Z,20.00
2023-02-17T22:21:58.617Z,20.00
2023-02-17T22:24:27.178Z,20.00
2023-02-17T22:26:54.786Z,20.00
2023-02-17T22:29:21.688Z,20.00
2023-02-17T22:31:50.377Z,20.00
2023-02-17T22:34:17.586Z,20.00
2023-02-17T22:36:44.635Z,20.10
2023-02-17T22:39:11.383Z,20.10
2023-02-17T22:41:39.322Z,20.10
2023-02-17T22:44:06.518Z,20.10
2023-02-17T22:46:34.262Z,20.10
2023-02-17T22:49:01.559Z,20.10
2023-02-17T22:51:36.233Z,20.10
2023-02-17T22:54:03.511Z,20.00
2023-02-17T22:56:30.657Z,20.00
2023-02-17T22:59:00.967Z,20.00
2023-02-17T23:01:30.054Z,19.90
2023-02-17T23:03:56.886Z,19.90
2023-02-17T23:06:26.729Z,19.90
2023-02-17T23:08:54.119Z,19.90
2023-02-17T23:11:43.821Z,19.90
2023-02-17T23:14:12.104Z,19.90
2023-02-17T23:16:39.432Z,19.90
2023-02-17T23:19:12.586Z,19.90
2023-02-17T23:21:50.352Z,19.90
2023-02-17T23:24:18.372Z,19.90
2023-02-17T23:26:47.408Z,19.90
2023-02-17T23:29:15.196Z,19.90
2023-02-17T23:31:42.001Z,20.00
2023-02-17T23:34:10.957Z,20.00
2023-02-17T23:36:42.180Z,20.00
2023-02-17T23:39:09.353Z,20.00
2023-02-17T23:41:37.336Z,20.00
2023-02-17T23:44:04.922Z,20.00
2023-02-17T23:46:31.872Z,20.00
2023-02-17T23:48:58.716Z,20.00
2023-02-17T23:51:25.794Z,20.00
2023-02-17T23:53:52.788Z,20.00
2023-02-17T23:56:27.030Z,19.90
2023-02-17T23:58:54.311Z,19.90
